Station: Wave Hill (Kalkarindji)

  Atmospheric Gas Attenuation - ITU Rec 676-11   --------------- db/100km ---------------
Date Time Temp RH % AH g/m3 Dew Point Wind Direction Speed kph Gust kph Barometer mB Rainfall Since 9am 24GHz 47GHz 76GHz 122GHz 134GHz 241GHz
06 09:00 24.6 36 8.1 8.7 7 1011.6 0 18.0 22.2 33.0 86.6 80.1 275.6
05 09:00 24.5 40 8.95 10 7 1011.5 0 19.8 23.4 36.0 94.5 89.8 309.8
04 09:00 22.8 40 8.13 8.8 2 1013.4 0 18.2 22.8 33.9 88.9 82.3 283.3
03 09:00 19.1 29 4.75 0.8 7 1014.9 0 11.3 19.1 24.0 62.2 48.0 162.2
02 09:00 17.6 23 3.45 -3.8 7 1016.9 0 8.6 17.7 20.3 52.4 35.3 117.2
01 09:00 17.4 24 3.56 -3.3 7 1018.6 0 8.8 18.0 20.8 53.5 36.6 121.7
31 09:00 18.6 30 4.77 0.6 20 1019 0 11.3 19.3 24.3 63.0 48.7 164.5
30 09:00 15.5 28 3.7 -3 11 1019.9 0 9.2 18.6 21.7 56.0 38.9 129.8
29 09:00 15.6 31 4.12 -1.2 11 1019 0 10.0 19.1 23.0 59.6 43.4 145.5
28 09:00 18.5 26 4.11 -1.1 41 1018.5 0 9.9 18.5 22.2 57.4 41.7 140.1
27 09:00 17 33 4.77 0.9 11 1019.6 0 11.4 19.7 24.8 64.3 49.7 167.8
26 09:00 18.4 25 3.93 -1.6 30 1019.8 0 9.6 18.3 21.7 56.0 40.0 133.8
25 09:00 19.8 28 4.78 1.1 30 1018.1 0 11.3 19.1 24.0 62.1 48.0 162.4
24 09:00 17.4 39 5.78 3.5 22 1017.5 0 13.5 20.9 28.0 72.9 60.5 206.1
23 09:00 17.5 25 3.73 -2.7 41 1018.4 0 9.2 18.2 21.3 54.9 38.3 127.7
22 09:00 16.5 42 5.9 3.6 30 1019.4 0 13.7 21.3 28.8 75.0 62.7 213.6
21 09:00 17.9 29 4.43 -0.3 30 1019.1 0 10.6 19.0 23.4 60.6 45.5 153.1
20 09:00 20.2 17 2.97 -5.2 30 1016.4 0 7.5 16.7 18.3 46.9 29.5 97.0
19 09:00 18.8 26 4.19 -1.2 7 1015.9 0 10.1 18.4 22.3 57.7 42.3 142.2
18 09:00 18 29 4.45 -0.1 7 1015.4 0 10.7 18.9 23.3 60.4 45.5 153.1
17 09:00 16.4 30 4.19 -1.2 11 1016.9 0 10.2 18.9 23.0 59.4 43.6 146.4
16 09:00 16 28 3.81 -2.4 13 1018.6 0 9.4 18.6 21.9 56.6 39.8 133.0
15 09:00 14.7 28 3.53 -3.3 32 1018.3 0 8.8 18.4 21.3 55.0 37.4 124.5
13 09:00 15.9 33 4.47 -0.3 46 1021 0 10.8 19.5 24.2 62.6 47.1 158.6
12 09:00 19.6 28 4.73 0.7 33 1020 0 11.2 19.1 23.9 62.0 47.7 161.2
11 09:00 21.1 38 7 6.3 28 1017.8 0 15.9 21.7 30.9 80.6 71.4 244.6
09 09:00 18.8 26 4.19 -0.8 30 1017.5 0 10.1 18.5 22.3 57.8 42.4 142.4
08 09:00 16.4 31 4.33 -0.5 20 1018.9 0 10.5 19.2 23.5 60.8 45.2 152.0
07 09:00 14.8 33 4.18 -1.1 32 1021.1 0 10.2 19.4 23.5 60.8 44.5 149.5
06 09:00 15.8 30 4.04 -1.6 46 1021.9 0 9.9 19.0 22.8 58.9 42.5 142.4
05 09:00 18.6 30 4.77 0.6 52 1022.2 0 11.3 19.4 24.4 63.2 48.8 165.0
04 09:00 20.2 30 5.25 2.1 56 1022.8 0 12.3 19.7 25.5 66.2 53.0 179.9
03 09:00 22.5 46 9.19 10.3 2 1019.3 0 20.4 24.6 38.1 100.0 95.6 329.7
02 09:00 21.8 35 6.71 6 7 1016.2 0 15.3 21.1 29.6 77.2 67.4 230.8
01 09:00 18.8 41 6.6 5.3 7 1016.3 0 15.1 21.7 30.3 79.1 68.7 235.0
30 09:00 18.5 36 5.7 3.4 7 1017.3 0 13.3 20.5 27.3 71.2 58.8 200.2
29 09:00 17.8 37 5.62 2.9 7 1018.3 0 13.1 20.6 27.3 71.1 58.5 199.0
28 09:00 18.1 36 5.56 3.1 20 1018.6 0 13.0 20.5 27.1 70.4 57.6 195.9
27 09:00 17.5 37 5.52 2.7 20 1017.9 0 12.9 20.5 27.1 70.5 57.6 195.7
26 09:00 16.8 39 5.58 2.9 20 1017.8 0 13.1 20.8 27.5 71.6 58.7 199.7
25 09:00 16.1 37 5.07 1.4 13 1018.4 0 12.0 20.2 26.0 67.6 53.5 181.2
24 09:00 15.8 40 5.38 2.5 19 1019.7 0 12.7 20.8 27.2 70.8 57.3 194.5
23 09:00 15.6 38 5.05 1.6 19 1018.7 0 12.0 20.3 26.1 67.9 53.6 181.6
22 09:00 19.1 34 5.57 3.1 30 1018.2 0 13.0 20.2 26.7 69.6 57.0 193.9
21 09:00 22.6 42 8.44 9.3 13 1017.1 0 18.8 23.4 35.3 92.4 86.4 297.5
20 09:00 22.3 46 9.08 10.1 6 1017.8 0 20.2 24.4 37.7 99.0 94.4 325.4
19 09:00 21 48 8.79 9.7 7 1019.6 0 19.6 24.4 37.3 97.9 92.6 318.9
18 09:00 19.8 42 7.17 6.5 7 1020.6 0 16.3 22.4 32.1 83.8 74.7 256.0
17 09:00 18.6 28 4.46 -0.1 41 1020.9 0 10.7 19.0 23.4 60.5 45.5 153.2
16 09:00 20.5 30 5.34 2.3 39 1019.7 0 12.4 19.7 25.6 66.5 53.6 182.2
15 09:00 22.1 41 8 8.3 32 1019.3 0 17.9 23.0 34.0 89.0 82.0 281.9
14 09:00 22 39 7.57 7.7 2 1017.7 0 17.0 22.3 32.5 85.0 77.0 264.5
13 09:00 23 28 5.75 3.5 11 1015.5 0 13.2 19.6 26.0 67.7 56.1 191.2
11 09:00 22.1 42 8.2 8.8 20 1016.6 0 18.4 23.2 34.6 90.7 84.1 289.4
10 09:00 20.2 45 7.87 7.9 20 1018.6 0 17.7 23.2 34.3 89.8 82.3 283.0
09 09:00 19.6 43 7.26 6.8 7 1019.6 0 16.5 22.5 32.4 84.7 75.8 260.1
08 09:00 20.8 42 7.6 7.7 20 1018 0 17.2 22.7 33.1 86.5 78.5 269.7
07 09:00 20.7 44 7.92 8.1 32 1016.6 0 17.8 23.1 34.2 89.5 82.3 282.8
06 09:00 17 39 5.64 2.9 22 1018 0 13.2 20.8 27.7 72.0 59.3 201.7
05 09:00 16.7 40 5.68 3 32 1020.4 0 13.3 21.0 28.0 72.8 60.1 204.4
04 09:00 17.9 35 5.34 2.4 41 1022 0 12.5 20.3 26.5 68.8 55.5 188.4
03 09:00 18.6 34 5.41 2.6 13 1022.9 0 12.7 20.3 26.5 68.9 55.8 189.6
02 09:00 21.8 37 7.1 6.6 32 1021 0 16.1 21.8 31.1 81.1 72.1 247.1
01 09:00 24.1 45 9.85 11.4 7 1018.5 0 21.7 25.1 39.7 104.3 101.5 350.5
31 09:00 25.4 35 8.24 9.1 7 1018 0 18.3 22.4 33.4 87.6 81.3 279.8
30 09:00 24 35 7.61 7.8 2 1018.4 0 17.0 21.9 31.9 83.3 75.6 259.8
29 09:00 25.1 28 6.48 5.3 20 1018.9 0 14.7 20.2 27.8 72.4 62.5 213.8
28 09:00 20.9 49 8.92 10 7 1019.1 0 19.9 24.6 37.8 99.3 94.2 324.7
27 09:00 22.2 40 7.85 8.2 7 1017.8 0 17.6 22.7 33.4 87.4 80.0 275.1
26 09:00 18.2 51 7.93 7.9 7 1017.8 0 18.0 23.8 35.4 92.6 85.1 292.5
25 09:00 15.5 56 7.4 6.8 13 1018.5 0 17.0 23.7 34.6 90.4 81.5 279.4
24 09:00 14 55 6.63 5.1 13 1021.4 0 15.4 23.1 32.4 84.6 73.7 251.7
23 09:00 13 72 8.17 8.2 20 1021.7 0.6 18.7 25.7 38.8 101.8 94.4 324.3
22 09:00 15.8 79 10.63 12.2 7 1018.1 7 23.8 28.8 47.3 124.4 123.4 426.2
21 09:00 17.1 95 13.83 16.3 7 1018.3 2 30.6 34.0 60.5 159.6 167.2 579.2
20 09:00 25.4 34 8 8.4 7 1015.9 0 17.8 22.1 32.5 85.2 78.5 270.0
19 09:00 23.1 31 6.41 5.2 7 1015.7 0 14.6 20.4 28.1 73.3 63.1 215.7
18 09:00 22.4 32 6.35 5.2 30 1016.2 0 14.5 20.5 28.2 73.5 63.0 215.3
17 09:00 23.1 30 6.2 4.9 41 1016.7 0 14.1 20.2 27.5 71.6 60.9 208.0
16 09:00 22.4 34 6.75 5.8 41 1017 0 15.3 21.1 29.5 77.1 67.4 230.8
15 09:00 21.5 22 4.15 -0.9 37 1018.1 0 9.9 17.9 21.5 55.7 40.6 136.5
14 09:00 20.8 21 3.8 -2 32 1018.9 0 9.2 17.6 20.7 53.3 37.5 125.3
13 09:00 21.6 23 4.36 -0.3 19 1018.2 0 10.4 18.2 22.2 57.3 42.7 143.9
12 09:00 21.3 22 4.1 -0.9 13 1018.7 0 9.8 17.9 21.5 55.4 40.3 135.2
11 09:00 21.7 24 4.58 0.3 32 1019.5 0 10.8 18.5 22.9 59.2 45.0 151.8
10 09:00 25.1 25 5.79 4.1 32 1018.1 0 13.2 19.3 25.6 66.5 55.2 188.4
09 09:00 26.6 48 12.08 14.7 7 1015.4 0 26.2 27.6 46.6 122.6 124.9 432.9
08 09:00 24.8 56 12.75 15.4 2 1015.7 0 27.8 29.3 50.3 132.5 136.5 473.2
07 09:00 21.8 31 5.95 3.9 2 1016.6 0 13.7 20.1 27.1 70.5 59.1 201.7
06 09:00 22 23 4.46 -0.2 20 1017.3 0 10.6 18.2 22.3 57.8 43.5 146.6
05 09:00 20.5 30 5.34 2.3 32 1018.3 0 12.4 19.6 25.6 66.4 53.6 182.0
04 09:00 20.4 35 6.19 4.4 32 1018.8 0 14.2 20.8 28.4 74.0 62.9 214.8
03 09:00 20.6 29 5.19 2.2 41 1018.3 0 12.1 19.4 25.0 65.0 51.9 176.1
02 09:00 18.6 29 4.62 0.3 32 1017.9 0 11.0 19.1 23.8 61.6 47.0 158.7
01 09:00 21.1 27 4.97 1.7 22 1018.2 0 11.7 19.0 24.2 62.8 49.3 166.9
30 09:00 28.1 28 7.66 8.1 20 1012.9 0 17.0 20.9 30.3 79.3 72.1 248.0
29 09:00 28 36 9.79 11.8 2 1012.7 0 21.4 23.8 37.4 98.3 95.5 330.1
28 09:00 28.5 36 10.06 12.3 7 1013.6 0 21.9 24.1 38.2 100.3 98.1 339.0
27 09:00 29.6 40 11.87 14.7 11 1013.7 0 25.6 26.4 44.0 115.9 117.6 407.7
26 09:00 26.7 27 6.83 6.6 7 1013.6 0 15.3 20.1 28.2 73.6 64.6 221.5

Last Refresh: 07-Aug-2020 07:28:23

Most of the information presented on this site is sourced from the Bureau of Meteorology.  Copyright in all material sourced from the Bureau of Meteorology resides with the Commonwealth of Australia.